sensor_id;sensor_type;location;lat;lon;timestamp;temperature;humidity
9450;DHT22;4763;48.370;10.874;2023-09-18T00:01:44;17.90;99.90
9450;DHT22;4763;48.370;10.874;2023-09-18T00:04:11;18.00;99.90
9450;DHT22;4763;48.370;10.874;2023-09-18T00:06:38;18.00;99.90
9450;DHT22;4763;48.370;10.874;2023-09-18T00:09:04;18.00;99.90
9450;DHT22;4763;48.370;10.874;2023-09-18T00:11:32;18.00;99.90
9450;DHT22;4763;48.370;10.874;2023-09-18T00:13:59;18.00;99.90
9450;DHT22;4763;48.370;10.874;2023-09-18T00:16:27;18.00;99.90
9450;DHT22;4763;48.370;10.874;2023-09-18T00:18:54;17.90;99.90
9450;DHT22;4763;48.370;10.874;2023-09-18T00:21:21;18.00;99.90
9450;DHT22;4763;48.370;10.874;2023-09-18T00:23:50;17.90;99.90
9450;DHT22;4763;48.370;10.874;2023-09-18T00:26:17;17.90;99.90
9450;DHT22;4763;48.370;10.874;2023-09-18T00:28:44;17.90;99.90
9450;DHT22;4763;48.370;10.874;2023-09-18T00:31:10;17.90;99.90
9450;DHT22;4763;48.370;10.874;2023-09-18T00:33:38;17.90;99.90
9450;DHT22;4763;48.370;10.874;2023-09-18T00:36:05;17.90;99.90
9450;DHT22;4763;48.370;10.874;2023-09-18T00:38:32;17.80;99.90
9450;DHT22;4763;48.370;10.874;2023-09-18T00:40:59;17.80;99.90
9450;DHT22;4763;48.370;10.874;2023-09-18T00:43:25;17.70;99.90
9450;DHT22;4763;48.370;10.874;2023-09-18T00:45:52;17.60;99.90
9450;DHT22;4763;48.370;10.874;2023-09-18T00:48:19;17.60;99.90
9450;DHT22;4763;48.370;10.874;2023-09-18T00:50:48;17.60;99.90
9450;DHT22;4763;48.370;10.874;2023-09-18T00:53:20;17.60;99.90
9450;DHT22;4763;48.370;10.874;2023-09-18T00:55:49;17.40;99.90
9450;DHT22;4763;48.370;10.874;2023-09-18T00:58:17;17.50;99.90
9450;DHT22;4763;48.370;10.874;2023-09-18T01:00:44;17.50;99.90
9450;DHT22;4763;48.370;10.874;2023-09-18T01:03:14;17.40;99.90
9450;DHT22;4763;48.370;10.874;2023-09-18T01:05:43;17.40;99.90
9450;DHT22;4763;48.370;10.874;2023-09-18T01:08:12;17.30;99.90
9450;DHT22;4763;48.370;10.874;2023-09-18T01:10:47;17.30;99.90
9450;DHT22;4763;48.370;10.874;2023-09-18T01:13:19;17.20;99.90
9450;DHT22;4763;48.370;10.874;2023-09-18T01:15:51;17.20;99.90
9450;DHT22;4763;48.370;10.874;2023-09-18T01:18:20;17.20;99.90
9450;DHT22;4763;48.370;10.874;2023-09-18T01:20:47;17.10;99.90
9450;DHT22;4763;48.370;10.874;2023-09-18T01:23:15;17.10;99.90
9450;DHT22;4763;48.370;10.874;2023-09-18T01:25:45;17.00;99.90
9450;DHT22;4763;48.370;10.874;2023-09-18T01:28:12;17.00;99.90
9450;DHT22;4763;48.370;10.874;2023-09-18T01:30:39;16.90;99.90
9450;DHT22;4763;48.370;10.874;2023-09-18T01:33:06;16.90;99.90
9450;DHT22;4763;48.370;10.874;2023-09-18T01:35:34;16.90;99.90
9450;DHT22;4763;48.370;10.874;2023-09-18T01:38:01;16.80;99.90
9450;DHT22;4763;48.370;10.874;2023-09-18T01:40:30;16.80;99.90
9450;DHT22;4763;48.370;10.874;2023-09-18T01:42:58;16.80;99.90
9450;DHT22;4763;48.370;10.874;2023-09-18T01:45:25;16.80;99.90
9450;DHT22;4763;48.370;10.874;2023-09-18T01:47:51;16.80;99.90
9450;DHT22;4763;48.370;10.874;2023-09-18T01:50:18;16.70;99.90
9450;DHT22;4763;48.370;10.874;2023-09-18T01:52:45;16.70;99.90
9450;DHT22;4763;48.370;10.874;2023-09-18T01:55:12;16.70;99.90
9450;DHT22;4763;48.370;10.874;2023-09-18T01:57:40;16.70;99.90
9450;DHT22;4763;48.370;10.874;2023-09-18T02:00:08;16.70;99.90
9450;DHT22;4763;48.370;10.874;2023-09-18T02:02:39;16.70;99.90
9450;DHT22;4763;48.370;10.874;2023-09-18T02:05:06;16.70;99.90
9450;DHT22;4763;48.370;10.874;2023-09-18T02:07:33;16.70;99.90
9450;DHT22;4763;48.370;10.874;2023-09-18T02:10:00;16.80;99.90
9450;DHT22;4763;48.370;10.874;2023-09-18T02:12:28;16.90;99.90
9450;DHT22;4763;48.370;10.874;2023-09-18T02:14:56;16.90;99.90
9450;DHT22;4763;48.370;10.874;2023-09-18T02:17:29;17.00;99.90
9450;DHT22;4763;48.370;10.874;2023-09-18T02:19:56;17.00;99.90
9450;DHT22;4763;48.370;10.874;2023-09-18T02:22:22;17.00;99.90
9450;DHT22;4763;48.370;10.874;2023-09-18T02:24:49;17.00;99.90
9450;DHT22;4763;48.370;10.874;2023-09-18T02:27:16;17.00;99.90
9450;DHT22;4763;48.370;10.874;2023-09-18T02:29:44;17.00;99.90
9450;DHT22;4763;48.370;10.874;2023-09-18T02:32:12;16.90;99.90
9450;DHT22;4763;48.370;10.874;2023-09-18T02:34:39;16.90;99.90
9450;DHT22;4763;48.370;10.874;2023-09-18T02:37:05;16.90;99.90
9450;DHT22;4763;48.370;10.874;2023-09-18T02:39:32;16.90;99.90
9450;DHT22;4763;48.370;10.874;2023-09-18T02:41:59;16.90;99.90
9450;DHT22;4763;48.370;10.874;2023-09-18T02:44:29;16.90;99.90
9450;DHT22;4763;48.370;10.874;2023-09-18T02:46:56;16.90;99.90
9450;DHT22;4763;48.370;10.874;2023-09-18T02:49:24;16.80;99.90
9450;DHT22;4763;48.370;10.874;2023-09-18T02:51:51;16.90;99.90
9450;DHT22;4763;48.370;10.874;2023-09-18T02:54:17;16.80;99.90
9450;DHT22;4763;48.370;10.874;2023-09-18T02:56:44;16.80;99.90
9450;DHT22;4763;48.370;10.874;2023-09-18T02:59:13;16.90;99.90
9450;DHT22;4763;48.370;10.874;2023-09-18T03:01:40;16.80;99.90
9450;DHT22;4763;48.370;10.874;2023-09-18T03:04:07;16.80;99.90
9450;DHT22;4763;48.370;10.874;2023-09-18T03:06:38;16.80;99.90
9450;DHT22;4763;48.370;10.874;2023-09-18T03:09:04;16.70;99.90
9450;DHT22;4763;48.370;10.874;2023-09-18T03:11:31;16.60;99.90
9450;DHT22;4763;48.370;10.874;2023-09-18T03:13:58;16.60;99.90
9450;DHT22;4763;48.370;10.874;2023-09-18T03:16:25;16.70;99.90
9450;DHT22;4763;48.370;10.874;2023-09-18T03:18:52;16.60;99.90
9450;DHT22;4763;48.370;10.874;2023-09-18T03:21:18;16.60;99.90
9450;DHT22;4763;48.370;10.874;2023-09-18T03:23:46;16.60;99.90
9450;DHT22;4763;48.370;10.874;2023-09-18T03:26:13;16.50;99.90
9450;DHT22;4763;48.370;10.874;2023-09-18T03:28:40;16.40;99.90
9450;DHT22;4763;48.370;10.874;2023-09-18T03:31:09;16.30;99.90
9450;DHT22;4763;48.370;10.874;2023-09-18T03:33:36;16.20;99.90
9450;DHT22;4763;48.370;10.874;2023-09-18T03:36:03;16.30;99.90
9450;DHT22;4763;48.370;10.874;2023-09-18T03:38:30;16.20;99.90
9450;DHT22;4763;48.370;10.874;2023-09-18T03:41:01;16.10;99.90
9450;DHT22;4763;48.370;10.874;2023-09-18T03:43:27;16.10;99.90
9450;DHT22;4763;48.370;10.874;2023-09-18T03:45:54;16.10;99.90
9450;DHT22;4763;48.370;10.874;2023-09-18T03:48:21;16.10;99.90
9450;DHT22;4763;48.370;10.874;2023-09-18T03:50:48;16.10;99.90
9450;DHT22;4763;48.370;10.874;2023-09-18T03:53:14;16.00;99.90
9450;DHT22;4763;48.370;10.874;2023-09-18T03:55:41;16.00;99.90
9450;DHT22;4763;48.370;10.874;2023-09-18T03:58:09;16.00;99.90
9450;DHT22;4763;48.370;10.874;2023-09-18T04:00:36;16.00;99.90
9450;DHT22;4763;48.370;10.874;2023-09-18T04:03:03;15.90;99.90
9450;DHT22;4763;48.370;10.874;2023-09-18T04:05:30;15.90;99.90
9450;DHT22;4763;48.370;10.874;2023-09-18T04:07:57;15.80;99.90
9450;DHT22;4763;48.370;10.874;2023-09-18T04:10:24;15.80;99.90
9450;DHT22;4763;48.370;10.874;2023-09-18T04:12:51;15.80;99.90
9450;DHT22;4763;48.370;10.874;2023-09-18T04:15:19;15.80;99.90
9450;DHT22;4763;48.370;10.874;2023-09-18T04:17:48;15.90;99.90
9450;DHT22;4763;48.370;10.874;2023-09-18T04:20:15;15.80;99.90
9450;DHT22;4763;48.370;10.874;2023-09-18T04:22:43;15.80;99.90
9450;DHT22;4763;48.370;10.874;2023-09-18T04:25:11;15.90;99.90
9450;DHT22;4763;48.370;10.874;2023-09-18T04:27:38;15.90;99.90
9450;DHT22;4763;48.370;10.874;2023-09-18T04:30:06;16.00;99.90
9450;DHT22;4763;48.370;10.874;2023-09-18T04:32:36;16.00;99.90
9450;DHT22;4763;48.370;10.874;2023-09-18T04:35:03;15.90;99.90
9450;DHT22;4763;48.370;10.874;2023-09-18T04:37:30;15.90;99.90
9450;DHT22;4763;48.370;10.874;2023-09-18T04:39:58;15.90;99.90
9450;DHT22;4763;48.370;10.874;2023-09-18T04:42:24;16.00;99.90
9450;DHT22;4763;48.370;10.874;2023-09-18T04:44:51;16.00;99.90
9450;DHT22;4763;48.370;10.874;2023-09-18T04:47:18;16.00;99.90
9450;DHT22;4763;48.370;10.874;2023-09-18T04:49:46;15.90;99.90
9450;DHT22;4763;48.370;10.874;2023-09-18T04:52:14;16.00;99.90
9450;DHT22;4763;48.370;10.874;2023-09-18T04:54:41;16.00;99.90
9450;DHT22;4763;48.370;10.874;2023-09-18T04:57:08;16.00;99.90
9450;DHT22;4763;48.370;10.874;2023-09-18T04:59:35;16.00;99.90
9450;DHT22;4763;48.370;10.874;2023-09-18T05:02:02;16.00;99.90
9450;DHT22;4763;48.370;10.874;2023-09-18T05:04:30;16.00;99.90
9450;DHT22;4763;48.370;10.874;2023-09-18T05:06:58;16.00;99.90
9450;DHT22;4763;48.370;10.874;2023-09-18T05:09:27;16.00;99.90
9450;DHT22;4763;48.370;10.874;2023-09-18T05:11:53;16.00;99.90
9450;DHT22;4763;48.370;10.874;2023-09-18T05:14:20;16.00;99.90
9450;DHT22;4763;48.370;10.874;2023-09-18T05:16:47;16.00;99.90
9450;DHT22;4763;48.370;10.874;2023-09-18T05:19:14;16.00;99.90
9450;DHT22;4763;48.370;10.874;2023-09-18T05:21:41;16.00;99.90
9450;DHT22;4763;48.370;10.874;2023-09-18T05:24:10;16.00;99.90
9450;DHT22;4763;48.370;10.874;2023-09-18T05:26:37;16.10;99.90
9450;DHT22;4763;48.370;10.874;2023-09-18T05:29:05;16.10;99.90
9450;DHT22;4763;48.370;10.874;2023-09-18T05:31:37;16.20;99.90
9450;DHT22;4763;48.370;10.874;2023-09-18T05:34:05;16.10;99.90
9450;DHT22;4763;48.370;10.874;2023-09-18T05:36:35;16.10;99.90
9450;DHT22;4763;48.370;10.874;2023-09-18T05:39:02;16.20;99.90
9450;DHT22;4763;48.370;10.874;2023-09-18T05:41:31;16.20;99.90
9450;DHT22;4763;48.370;10.874;2023-09-18T05:43:58;16.20;99.90
9450;DHT22;4763;48.370;10.874;2023-09-18T05:46:23;16.20;99.90
9450;DHT22;4763;48.370;10.874;2023-09-18T05:48:50;16.30;99.90
9450;DHT22;4763;48.370;10.874;2023-09-18T05:51:19;16.30;99.90
9450;DHT22;4763;48.370;10.874;2023-09-18T05:53:45;16.40;99.90
9450;DHT22;4763;48.370;10.874;2023-09-18T05:56:12;16.50;99.90
9450;DHT22;4763;48.370;10.874;2023-09-18T05:58:44;16.50;99.90
9450;DHT22;4763;48.370;10.874;2023-09-18T06:01:10;16.50;99.90
9450;DHT22;4763;48.370;10.874;2023-09-18T06:03:39;16.60;99.90
9450;DHT22;4763;48.370;10.874;2023-09-18T06:06:06;16.60;99.90
9450;DHT22;4763;48.370;10.874;2023-09-18T06:08:33;16.60;99.90
9450;DHT22;4763;48.370;10.874;2023-09-18T06:11:00;16.70;99.90
9450;DHT22;4763;48.370;10.874;2023-09-18T06:13:27;16.70;99.90
9450;DHT22;4763;48.370;10.874;2023-09-18T06:16:01;16.70;99.90
9450;DHT22;4763;48.370;10.874;2023-09-18T06:18:32;16.80;99.90
9450;DHT22;4763;48.370;10.874;2023-09-18T06:21:01;16.80;99.90
9450;DHT22;4763;48.370;10.874;2023-09-18T06:23:27;16.80;99.90
9450;DHT22;4763;48.370;10.874;2023-09-18T06:25:54;16.90;99.90
9450;DHT22;4763;48.370;10.874;2023-09-18T06:28:26;16.80;99.90
9450;DHT22;4763;48.370;10.874;2023-09-18T06:30:54;16.70;99.90
9450;DHT22;4763;48.370;10.874;2023-09-18T06:33:23;16.90;99.90
9450;DHT22;4763;48.370;10.874;2023-09-18T06:35:49;16.80;99.90
9450;DHT22;4763;48.370;10.874;2023-09-18T06:38:17;16.90;99.90
9450;DHT22;4763;48.370;10.874;2023-09-18T06:40:46;17.00;99.90
9450;DHT22;4763;48.370;10.874;2023-09-18T06:43:13;17.10;99.90
9450;DHT22;4763;48.370;10.874;2023-09-18T06:45:40;17.20;99.90
9450;DHT22;4763;48.370;10.874;2023-09-18T06:48:08;17.40;99.90
9450;DHT22;4763;48.370;10.874;2023-09-18T06:50:36;17.40;99.90
9450;DHT22;4763;48.370;10.874;2023-09-18T06:53:07;17.60;99.90
9450;DHT22;4763;48.370;10.874;2023-09-18T06:55:35;17.60;99.90
9450;DHT22;4763;48.370;10.874;2023-09-18T06:58:01;17.70;99.90
9450;DHT22;4763;48.370;10.874;2023-09-18T07:00:29;17.70;99.90
9450;DHT22;4763;48.370;10.874;2023-09-18T07:02:55;17.80;99.90
9450;DHT22;4763;48.370;10.874;2023-09-18T07:05:22;17.80;99.90
9450;DHT22;4763;48.370;10.874;2023-09-18T07:07:51;17.90;99.90
9450;DHT22;4763;48.370;10.874;2023-09-18T07:10:18;18.00;99.90
9450;DHT22;4763;48.370;10.874;2023-09-18T07:12:45;18.00;99.90
9450;DHT22;4763;48.370;10.874;2023-09-18T07:15:12;18.10;99.90
9450;DHT22;4763;48.370;10.874;2023-09-18T07:17:41;18.20;99.90
9450;DHT22;4763;48.370;10.874;2023-09-18T07:20:08;18.40;99.90
9450;DHT22;4763;48.370;10.874;2023-09-18T07:22:39;18.50;99.90
9450;DHT22;4763;48.370;10.874;2023-09-18T07:25:08;18.60;99.90
9450;DHT22;4763;48.370;10.874;2023-09-18T07:27:34;18.70;99.90
9450;DHT22;4763;48.370;10.874;2023-09-18T07:30:05;18.80;99.90
9450;DHT22;4763;48.370;10.874;2023-09-18T07:32:32;18.80;99.90
9450;DHT22;4763;48.370;10.874;2023-09-18T07:34:58;18.90;99.90
9450;DHT22;4763;48.370;10.874;2023-09-18T07:37:25;19.00;99.90
9450;DHT22;4763;48.370;10.874;2023-09-18T07:39:53;19.10;99.90
9450;DHT22;4763;48.370;10.874;2023-09-18T07:42:24;19.30;99.90
9450;DHT22;4763;48.370;10.874;2023-09-18T07:44:51;19.50;99.90
9450;DHT22;4763;48.370;10.874;2023-09-18T07:47:17;19.60;99.90
9450;DHT22;4763;48.370;10.874;2023-09-18T07:49:44;19.70;99.90
9450;DHT22;4763;48.370;10.874;2023-09-18T07:52:11;19.90;99.90
9450;DHT22;4763;48.370;10.874;2023-09-18T07:54:38;20.00;99.90
9450;DHT22;4763;48.370;10.874;2023-09-18T07:57:05;20.10;99.90
9450;DHT22;4763;48.370;10.874;2023-09-18T07:59:36;20.30;99.90
9450;DHT22;4763;48.370;10.874;2023-09-18T08:02:04;20.30;99.90
9450;DHT22;4763;48.370;10.874;2023-09-18T08:04:32;20.40;99.90
9450;DHT22;4763;48.370;10.874;2023-09-18T08:06:58;20.40;99.90
9450;DHT22;4763;48.370;10.874;2023-09-18T08:09:26;20.50;99.90
9450;DHT22;4763;48.370;10.874;2023-09-18T08:11:54;20.50;99.90
9450;DHT22;4763;48.370;10.874;2023-09-18T08:14:23;20.60;99.90
9450;DHT22;4763;48.370;10.874;2023-09-18T08:16:59;20.70;99.90
9450;DHT22;4763;48.370;10.874;2023-09-18T08:19:26;20.80;99.90
9450;DHT22;4763;48.370;10.874;2023-09-18T08:21:53;20.90;99.90
9450;DHT22;4763;48.370;10.874;2023-09-18T08:24:21;21.10;99.90
9450;DHT22;4763;48.370;10.874;2023-09-18T08:26:48;21.30;99.90
9450;DHT22;4763;48.370;10.874;2023-09-18T08:29:15;21.60;99.90
9450;DHT22;4763;48.370;10.874;2023-09-18T08:31:43;21.80;99.90
9450;DHT22;4763;48.370;10.874;2023-09-18T08:34:11;22.00;99.90
9450;DHT22;4763;48.370;10.874;2023-09-18T08:36:38;22.30;99.90
9450;DHT22;4763;48.370;10.874;2023-09-18T08:39:05;22.50;99.90
9450;DHT22;4763;48.370;10.874;2023-09-18T08:41:38;22.60;99.90
9450;DHT22;4763;48.370;10.874;2023-09-18T08:44:08;22.90;99.90
9450;DHT22;4763;48.370;10.874;2023-09-18T08:46:36;23.10;99.90
9450;DHT22;4763;48.370;10.874;2023-09-18T08:49:04;23.30;99.90
9450;DHT22;4763;48.370;10.874;2023-09-18T08:51:33;23.60;99.90
9450;DHT22;4763;48.370;10.874;2023-09-18T08:54:00;23.70;99.90
9450;DHT22;4763;48.370;10.874;2023-09-18T08:56:29;23.80;99.90
9450;DHT22;4763;48.370;10.874;2023-09-18T08:58:56;23.90;99.90
9450;DHT22;4763;48.370;10.874;2023-09-18T09:01:25;23.90;99.90
9450;DHT22;4763;48.370;10.874;2023-09-18T09:03:52;23.90;99.90
9450;DHT22;4763;48.370;10.874;2023-09-18T09:06:19;23.90;99.90
9450;DHT22;4763;48.370;10.874;2023-09-18T09:08:47;23.80;99.90
9450;DHT22;4763;48.370;10.874;2023-09-18T09:11:14;23.80;99.90
9450;DHT22;4763;48.370;10.874;2023-09-18T09:13:43;23.80;99.90
9450;DHT22;4763;48.370;10.874;2023-09-18T09:16:12;23.80;99.90
9450;DHT22;4763;48.370;10.874;2023-09-18T09:18:47;23.60;99.90
9450;DHT22;4763;48.370;10.874;2023-09-18T09:21:15;23.60;99.90
9450;DHT22;4763;48.370;10.874;2023-09-18T09:23:49;23.60;99.90
9450;DHT22;4763;48.370;10.874;2023-09-18T09:26:18;23.60;99.90
9450;DHT22;4763;48.370;10.874;2023-09-18T09:28:45;23.60;99.90
9450;DHT22;4763;48.370;10.874;2023-09-18T09:31:23;23.70;99.90
9450;DHT22;4763;48.370;10.874;2023-09-18T09:33:56;23.90;99.90
9450;DHT22;4763;48.370;10.874;2023-09-18T09:36:23;24.00;99.90
9450;DHT22;4763;48.370;10.874;2023-09-18T09:38:54;24.10;99.90
9450;DHT22;4763;48.370;10.874;2023-09-18T09:41:21;24.00;99.90
9450;DHT22;4763;48.370;10.874;2023-09-18T09:43:48;24.10;99.90
9450;DHT22;4763;48.370;10.874;2023-09-18T09:46:16;24.20;99.90
9450;DHT22;4763;48.370;10.874;2023-09-18T09:48:58;24.20;99.90
9450;DHT22;4763;48.370;10.874;2023-09-18T09:51:26;24.30;99.90
9450;DHT22;4763;48.370;10.874;2023-09-18T09:53:55;24.30;99.90
9450;DHT22;4763;48.370;10.874;2023-09-18T09:56:40;24.70;99.90
9450;DHT22;4763;48.370;10.874;2023-09-18T09:59:07;25.10;99.90
9450;DHT22;4763;48.370;10.874;2023-09-18T10:01:34;25.20;99.90
9450;DHT22;4763;48.370;10.874;2023-09-18T10:04:04;24.90;99.90
9450;DHT22;4763;48.370;10.874;2023-09-18T10:06:34;24.80;99.90
9450;DHT22;4763;48.370;10.874;2023-09-18T10:09:03;24.50;99.90
9450;DHT22;4763;48.370;10.874;2023-09-18T10:11:31;24.30;99.90
9450;DHT22;4763;48.370;10.874;2023-09-18T10:14:06;24.20;99.90
9450;DHT22;4763;48.370;10.874;2023-09-18T10:16:37;24.10;99.90
9450;DHT22;4763;48.370;10.874;2023-09-18T10:19:11;24.00;99.90
9450;DHT22;4763;48.370;10.874;2023-09-18T10:21:44;23.90;99.90
9450;DHT22;4763;48.370;10.874;2023-09-18T10:24:20;23.70;99.90
9450;DHT22;4763;48.370;10.874;2023-09-18T10:26:54;23.70;99.90
9450;DHT22;4763;48.370;10.874;2023-09-18T10:29:25;23.60;99.90
9450;DHT22;4763;48.370;10.874;2023-09-18T10:31:53;23.40;99.90
9450;DHT22;4763;48.370;10.874;2023-09-18T10:34:20;23.40;99.90
9450;DHT22;4763;48.370;10.874;2023-09-18T10:36:50;23.40;99.90
9450;DHT22;4763;48.370;10.874;2023-09-18T10:39:20;23.30;99.90
9450;DHT22;4763;48.370;10.874;2023-09-18T10:41:52;23.20;99.90
9450;DHT22;4763;48.370;10.874;2023-09-18T10:44:19;23.10;99.90
9450;DHT22;4763;48.370;10.874;2023-09-18T10:46:46;23.10;99.90
9450;DHT22;4763;48.370;10.874;2023-09-18T10:49:14;23.10;99.90
9450;DHT22;4763;48.370;10.874;2023-09-18T10:51:41;23.00;99.90
9450;DHT22;4763;48.370;10.874;2023-09-18T10:54:11;22.90;99.90
9450;DHT22;4763;48.370;10.874;2023-09-18T10:56:41;22.70;99.90
9450;DHT22;4763;48.370;10.874;2023-09-18T10:59:08;22.50;99.90
9450;DHT22;4763;48.370;10.874;2023-09-18T11:01:36;22.30;99.90
9450;DHT22;4763;48.370;10.874;2023-09-18T11:04:04;22.20;99.90
9450;DHT22;4763;48.370;10.874;2023-09-18T11:07:03;22.10;99.90
9450;DHT22;4763;48.370;10.874;2023-09-18T11:09:40;22.00;99.90
9450;DHT22;4763;48.370;10.874;2023-09-18T11:12:09;21.90;99.90
9450;DHT22;4763;48.370;10.874;2023-09-18T11:14:44;21.80;99.90
9450;DHT22;4763;48.370;10.874;2023-09-18T11:17:34;21.60;99.90
9450;DHT22;4763;48.370;10.874;2023-09-18T11:20:05;21.40;99.90
9450;DHT22;4763;48.370;10.874;2023-09-18T11:22:35;21.30;99.90
9450;DHT22;4763;48.370;10.874;2023-09-18T11:28:16;21.10;99.90
9450;DHT22;4763;48.370;10.874;2023-09-18T11:30:50;21.00;99.90
9450;DHT22;4763;48.370;10.874;2023-09-18T11:33:32;20.90;99.90
9450;DHT22;4763;48.370;10.874;2023-09-18T11:36:04;20.50;99.90
9450;DHT22;4763;48.370;10.874;2023-09-18T11:38:33;20.40;99.90
9450;DHT22;4763;48.370;10.874;2023-09-18T11:43:44;20.10;99.90
9450;DHT22;4763;48.370;10.874;2023-09-18T11:46:20;20.00;99.90
9450;DHT22;4763;48.370;10.874;2023-09-18T11:48:49;19.80;99.90
9450;DHT22;4763;48.370;10.874;2023-09-18T11:51:23;19.70;99.90
9450;DHT22;4763;48.370;10.874;2023-09-18T11:53:55;19.70;99.90
9450;DHT22;4763;48.370;10.874;2023-09-18T11:56:22;19.40;99.90
9450;DHT22;4763;48.370;10.874;2023-09-18T11:58:51;19.30;99.90
9450;DHT22;4763;48.370;10.874;2023-09-18T12:01:21;19.20;99.90
9450;DHT22;4763;48.370;10.874;2023-09-18T12:03:54;19.20;99.90
9450;DHT22;4763;48.370;10.874;2023-09-18T12:06:22;19.20;99.90
9450;DHT22;4763;48.370;10.874;2023-09-18T12:08:51;19.00;99.90
9450;DHT22;4763;48.370;10.874;2023-09-18T12:11:18;19.00;99.90
9450;DHT22;4763;48.370;10.874;2023-09-18T12:13:45;18.90;99.90
9450;DHT22;4763;48.370;10.874;2023-09-18T12:16:13;18.80;99.90
9450;DHT22;4763;48.370;10.874;2023-09-18T12:18:45;18.70;99.90
9450;DHT22;4763;48.370;10.874;2023-09-18T12:21:13;18.80;99.90
9450;DHT22;4763;48.370;10.874;2023-09-18T12:23:41;18.80;99.90
9450;DHT22;4763;48.370;10.874;2023-09-18T12:26:11;18.80;99.90
9450;DHT22;4763;48.370;10.874;2023-09-18T12:28:39;18.80;99.90
9450;DHT22;4763;48.370;10.874;2023-09-18T12:31:13;18.70;99.90
9450;DHT22;4763;48.370;10.874;2023-09-18T12:33:41;18.70;99.90
9450;DHT22;4763;48.370;10.874;2023-09-18T12:36:09;18.70;99.90
9450;DHT22;4763;48.370;10.874;2023-09-18T12:38:37;18.60;99.90
9450;DHT22;4763;48.370;10.874;2023-09-18T12:41:05;18.60;99.90
9450;DHT22;4763;48.370;10.874;2023-09-18T12:43:36;18.60;99.90
9450;DHT22;4763;48.370;10.874;2023-09-18T12:46:05;18.70;99.90
9450;DHT22;4763;48.370;10.874;2023-09-18T12:48:36;18.70;99.90
9450;DHT22;4763;48.370;10.874;2023-09-18T12:51:04;18.80;99.90
9450;DHT22;4763;48.370;10.874;2023-09-18T12:53:32;18.80;99.90
9450;DHT22;4763;48.370;10.874;2023-09-18T12:56:06;18.90;99.90
9450;DHT22;4763;48.370;10.874;2023-09-18T12:58:35;18.90;99.90
9450;DHT22;4763;48.370;10.874;2023-09-18T13:01:05;18.90;99.90
9450;DHT22;4763;48.370;10.874;2023-09-18T13:03:41;18.90;99.90
9450;DHT22;4763;48.370;10.874;2023-09-18T13:06:10;19.00;99.90
9450;DHT22;4763;48.370;10.874;2023-09-18T13:08:40;18.90;99.90
9450;DHT22;4763;48.370;10.874;2023-09-18T13:11:07;19.00;99.90
9450;DHT22;4763;48.370;10.874;2023-09-18T13:13:37;18.90;99.90
9450;DHT22;4763;48.370;10.874;2023-09-18T13:16:06;18.80;99.90
9450;DHT22;4763;48.370;10.874;2023-09-18T13:18:34;18.80;99.90
9450;DHT22;4763;48.370;10.874;2023-09-18T13:21:10;18.70;99.90
9450;DHT22;4763;48.370;10.874;2023-09-18T13:23:37;18.60;99.90
9450;DHT22;4763;48.370;10.874;2023-09-18T13:26:08;18.70;99.90
9450;DHT22;4763;48.370;10.874;2023-09-18T13:28:35;18.60;99.90
9450;DHT22;4763;48.370;10.874;2023-09-18T13:31:03;18.70;99.90
9450;DHT22;4763;48.370;10.874;2023-09-18T13:33:32;18.80;99.90
9450;DHT22;4763;48.370;10.874;2023-09-18T13:35:59;18.80;99.90
9450;DHT22;4763;48.370;10.874;2023-09-18T13:38:28;18.80;99.90
9450;DHT22;4763;48.370;10.874;2023-09-18T13:40:54;18.80;99.90
9450;DHT22;4763;48.370;10.874;2023-09-18T13:43:21;18.90;99.90
9450;DHT22;4763;48.370;10.874;2023-09-18T13:45:48;19.00;99.90
9450;DHT22;4763;48.370;10.874;2023-09-18T13:48:17;19.00;99.90
9450;DHT22;4763;48.370;10.874;2023-09-18T13:50:44;19.10;99.90
9450;DHT22;4763;48.370;10.874;2023-09-18T13:53:11;19.00;99.90
9450;DHT22;4763;48.370;10.874;2023-09-18T13:55:39;19.10;99.90
9450;DHT22;4763;48.370;10.874;2023-09-18T13:58:08;19.10;99.90
9450;DHT22;4763;48.370;10.874;2023-09-18T14:00:35;19.10;99.90
9450;DHT22;4763;48.370;10.874;2023-09-18T14:03:02;19.10;99.90
9450;DHT22;4763;48.370;10.874;2023-09-18T14:05:29;19.10;99.90
9450;DHT22;4763;48.370;10.874;2023-09-18T14:08:01;19.20;99.90
9450;DHT22;4763;48.370;10.874;2023-09-18T14:10:40;19.20;99.90
9450;DHT22;4763;48.370;10.874;2023-09-18T14:13:14;19.20;99.90
9450;DHT22;4763;48.370;10.874;2023-09-18T14:15:41;19.20;99.90
9450;DHT22;4763;48.370;10.874;2023-09-18T14:18:07;19.20;99.90
9450;DHT22;4763;48.370;10.874;2023-09-18T14:20:35;19.30;99.90
9450;DHT22;4763;48.370;10.874;2023-09-18T14:23:03;19.10;99.90
9450;DHT22;4763;48.370;10.874;2023-09-18T14:25:35;19.10;99.90
9450;DHT22;4763;48.370;10.874;2023-09-18T14:28:06;19.10;99.90
9450;DHT22;4763;48.370;10.874;2023-09-18T14:30:33;19.10;99.90
9450;DHT22;4763;48.370;10.874;2023-09-18T14:33:00;19.20;99.90
9450;DHT22;4763;48.370;10.874;2023-09-18T14:35:27;19.30;99.90
9450;DHT22;4763;48.370;10.874;2023-09-18T14:37:54;19.40;99.90
9450;DHT22;4763;48.370;10.874;2023-09-18T14:40:21;19.40;99.90
9450;DHT22;4763;48.370;10.874;2023-09-18T14:42:48;19.50;99.90
9450;DHT22;4763;48.370;10.874;2023-09-18T14:45:16;19.60;99.90
9450;DHT22;4763;48.370;10.874;2023-09-18T14:47:43;19.60;99.90
9450;DHT22;4763;48.370;10.874;2023-09-18T14:50:10;19.60;99.90
9450;DHT22;4763;48.370;10.874;2023-09-18T14:52:36;19.60;99.90
9450;DHT22;4763;48.370;10.874;2023-09-18T14:55:04;19.70;99.90
9450;DHT22;4763;48.370;10.874;2023-09-18T14:57:31;19.70;99.90
9450;DHT22;4763;48.370;10.874;2023-09-18T14:59:57;19.90;99.90
9450;DHT22;4763;48.370;10.874;2023-09-18T15:02:26;19.90;99.90
9450;DHT22;4763;48.370;10.874;2023-09-18T15:04:56;19.90;99.90
9450;DHT22;4763;48.370;10.874;2023-09-18T15:07:24;20.00;99.90
9450;DHT22;4763;48.370;10.874;2023-09-18T15:09:50;19.90;99.90
9450;DHT22;4763;48.370;10.874;2023-09-18T15:12:17;20.00;99.90
9450;DHT22;4763;48.370;10.874;2023-09-18T15:14:44;20.00;99.90
9450;DHT22;4763;48.370;10.874;2023-09-18T15:17:11;19.90;99.90
9450;DHT22;4763;48.370;10.874;2023-09-18T15:19:40;19.90;99.90
9450;DHT22;4763;48.370;10.874;2023-09-18T15:22:07;19.80;99.90
9450;DHT22;4763;48.370;10.874;2023-09-18T15:24:35;19.70;99.90
9450;DHT22;4763;48.370;10.874;2023-09-18T15:27:02;19.70;99.90
9450;DHT22;4763;48.370;10.874;2023-09-18T15:29:29;19.80;99.90
9450;DHT22;4763;48.370;10.874;2023-09-18T15:31:56;19.70;99.90
9450;DHT22;4763;48.370;10.874;2023-09-18T15:34:23;19.80;99.90
9450;DHT22;4763;48.370;10.874;2023-09-18T15:36:51;19.90;99.90
9450;DHT22;4763;48.370;10.874;2023-09-18T15:39:18;19.90;99.90
9450;DHT22;4763;48.370;10.874;2023-09-18T15:41:45;20.00;99.90
9450;DHT22;4763;48.370;10.874;2023-09-18T15:44:12;20.20;99.90
9450;DHT22;4763;48.370;10.874;2023-09-18T15:46:40;20.20;99.90
9450;DHT22;4763;48.370;10.874;2023-09-18T15:49:06;20.20;99.90
9450;DHT22;4763;48.370;10.874;2023-09-18T15:51:33;20.10;99.90
9450;DHT22;4763;48.370;10.874;2023-09-18T15:54:01;20.20;99.90
9450;DHT22;4763;48.370;10.874;2023-09-18T15:56:29;20.10;99.90
9450;DHT22;4763;48.370;10.874;2023-09-18T15:58:58;20.10;99.90